sensor_id;sensor_type;location;lat;lon;timestamp;P1;durP1;ratioP1;P2;durP2;ratioP2
8683;SDS011;4379;59.744;18.206;2023-08-31T00:01:45;2.05;;;1.95;;
8683;SDS011;4379;59.744;18.206;2023-08-31T00:04:15;2.40;;;2.20;;
8683;SDS011;4379;59.744;18.206;2023-08-31T00:06:43;2.00;;;1.90;;
8683;SDS011;4379;59.744;18.206;2023-08-31T00:09:11;3.92;;;2.15;;
8683;SDS011;4379;59.744;18.206;2023-08-31T00:11:39;3.50;;;2.25;;
8683;SDS011;4379;59.744;18.206;2023-08-31T00:14:08;2.10;;;2.00;;
8683;SDS011;4379;59.744;18.206;2023-08-31T00:16:36;2.33;;;2.22;;
8683;SDS011;4379;59.744;18.206;2023-08-31T00:19:04;2.20;;;2.00;;
8683;SDS011;4379;59.744;18.206;2023-08-31T00:21:31;2.50;;;2.25;;
8683;SDS011;4379;59.744;18.206;2023-08-31T00:23:59;2.13;;;2.00;;
8683;SDS011;4379;59.744;18.206;2023-08-31T00:26:27;2.47;;;2.38;;
8683;SDS011;4379;59.744;18.206;2023-08-31T00:28:57;3.33;;;2.38;;
8683;SDS011;4379;59.744;18.206;2023-08-31T00:31:25;2.47;;;2.27;;
8683;SDS011;4379;59.744;18.206;2023-08-31T00:33:54;2.70;;;2.60;;
8683;SDS011;4379;59.744;18.206;2023-08-31T00:36:22;3.35;;;2.17;;
8683;SDS011;4379;59.744;18.206;2023-08-31T00:38:50;2.28;;;2.17;;
8683;SDS011;4379;59.744;18.206;2023-08-31T00:41:17;2.30;;;2.20;;
8683;SDS011;4379;59.744;18.206;2023-08-31T00:43:45;2.80;;;2.70;;
8683;SDS011;4379;59.744;18.206;2023-08-31T00:46:13;2.55;;;2.35;;
8683;SDS011;4379;59.744;18.206;2023-08-31T00:48:41;2.45;;;2.28;;
8683;SDS011;4379;59.744;18.206;2023-08-31T00:51:09;2.97;;;2.70;;
8683;SDS011;4379;59.744;18.206;2023-08-31T00:53:37;2.60;;;2.40;;
8683;SDS011;4379;59.744;18.206;2023-08-31T00:56:05;2.17;;;2.10;;
8683;SDS011;4379;59.744;18.206;2023-08-31T00:58:33;3.33;;;2.60;;
8683;SDS011;4379;59.744;18.206;2023-08-31T01:01:06;2.55;;;2.40;;
8683;SDS011;4379;59.744;18.206;2023-08-31T01:03:43;2.50;;;2.40;;
8683;SDS011;4379;59.744;18.206;2023-08-31T01:08:56;3.90;;;2.60;;
8683;SDS011;4379;59.744;18.206;2023-08-31T01:14:43;2.20;;;2.10;;
8683;SDS011;4379;59.744;18.206;2023-08-31T01:17:14;2.33;;;2.23;;
8683;SDS011;4379;59.744;18.206;2023-08-31T01:19:45;2.33;;;2.13;;
8683;SDS011;4379;59.744;18.206;2023-08-31T01:23:02;2.22;;;2.00;;
8683;SDS011;4379;59.744;18.206;2023-08-31T01:25:07;2.27;;;2.07;;
8683;SDS011;4379;59.744;18.206;2023-08-31T01:27:36;2.20;;;2.10;;
8683;SDS011;4379;59.744;18.206;2023-08-31T01:30:05;2.10;;;2.00;;
8683;SDS011;4379;59.744;18.206;2023-08-31T01:32:33;2.40;;;2.30;;
8683;SDS011;4379;59.744;18.206;2023-08-31T01:35:02;4.68;;;2.25;;
8683;SDS011;4379;59.744;18.206;2023-08-31T01:37:50;2.20;;;2.10;;
8683;SDS011;4379;59.744;18.206;2023-08-31T01:40:38;2.80;;;2.40;;
8683;SDS011;4379;59.744;18.206;2023-08-31T01:43:10;2.17;;;2.08;;
8683;SDS011;4379;59.744;18.206;2023-08-31T01:45:39;3.28;;;2.38;;
8683;SDS011;4379;59.744;18.206;2023-08-31T01:48:08;2.47;;;2.30;;
8683;SDS011;4379;59.744;18.206;2023-08-31T01:50:36;4.60;;;2.27;;
8683;SDS011;4379;59.744;18.206;2023-08-31T01:53:04;2.50;;;2.40;;
8683;SDS011;4379;59.744;18.206;2023-08-31T01:55:33;2.13;;;1.93;;
8683;SDS011;4379;59.744;18.206;2023-08-31T01:58:01;2.57;;;2.37;;
8683;SDS011;4379;59.744;18.206;2023-08-31T02:00:29;2.87;;;2.67;;
8683;SDS011;4379;59.744;18.206;2023-08-31T02:03:01;2.33;;;2.22;;
8683;SDS011;4379;59.744;18.206;2023-08-31T02:05:29;2.50;;;2.40;;
8683;SDS011;4379;59.744;18.206;2023-08-31T02:07:56;2.67;;;2.57;;
8683;SDS011;4379;59.744;18.206;2023-08-31T02:10:24;4.63;;;2.60;;
8683;SDS011;4379;59.744;18.206;2023-08-31T02:12:55;2.63;;;2.53;;
8683;SDS011;4379;59.744;18.206;2023-08-31T02:15:22;2.38;;;2.28;;
8683;SDS011;4379;59.744;18.206;2023-08-31T02:17:50;2.90;;;2.40;;
8683;SDS011;4379;59.744;18.206;2023-08-31T02:20:17;2.80;;;2.70;;
8683;SDS011;4379;59.744;18.206;2023-08-31T02:22:47;2.77;;;2.67;;
8683;SDS011;4379;59.744;18.206;2023-08-31T02:25:15;3.50;;;3.30;;
8683;SDS011;4379;59.744;18.206;2023-08-31T02:27:43;4.65;;;2.72;;
8683;SDS011;4379;59.744;18.206;2023-08-31T02:30:10;3.25;;;3.00;;
8683;SDS011;4379;59.744;18.206;2023-08-31T02:32:38;3.23;;;2.93;;
8683;SDS011;4379;59.744;18.206;2023-08-31T02:35:06;3.20;;;3.10;;
8683;SDS011;4379;59.744;18.206;2023-08-31T02:37:34;3.13;;;2.93;;
8683;SDS011;4379;59.744;18.206;2023-08-31T02:40:01;3.38;;;3.05;;
8683;SDS011;4379;59.744;18.206;2023-08-31T02:42:29;2.80;;;2.70;;
8683;SDS011;4379;59.744;18.206;2023-08-31T02:44:56;2.97;;;2.55;;
8683;SDS011;4379;59.744;18.206;2023-08-31T02:47:24;2.50;;;2.38;;
8683;SDS011;4379;59.744;18.206;2023-08-31T02:49:51;3.13;;;2.67;;
8683;SDS011;4379;59.744;18.206;2023-08-31T02:52:19;2.83;;;2.72;;
8683;SDS011;4379;59.744;18.206;2023-08-31T02:54:46;2.55;;;2.45;;
8683;SDS011;4379;59.744;18.206;2023-08-31T02:57:13;2.78;;;2.58;;
8683;SDS011;4379;59.744;18.206;2023-08-31T02:59:44;2.72;;;2.58;;
8683;SDS011;4379;59.744;18.206;2023-08-31T03:02:13;2.80;;;2.70;;
8683;SDS011;4379;59.744;18.206;2023-08-31T03:04:42;3.13;;;2.75;;
8683;SDS011;4379;59.744;18.206;2023-08-31T03:07:09;2.47;;;2.35;;
8683;SDS011;4379;59.744;18.206;2023-08-31T03:09:40;4.10;;;2.50;;
8683;SDS011;4379;59.744;18.206;2023-08-31T03:12:08;2.53;;;2.42;;
8683;SDS011;4379;59.744;18.206;2023-08-31T03:14:35;2.17;;;2.07;;
8683;SDS011;4379;59.744;18.206;2023-08-31T03:17:03;2.80;;;2.08;;
8683;SDS011;4379;59.744;18.206;2023-08-31T03:19:31;2.40;;;2.20;;
8683;SDS011;4379;59.744;18.206;2023-08-31T03:21:58;2.40;;;2.30;;
8683;SDS011;4379;59.744;18.206;2023-08-31T03:24:26;2.50;;;2.30;;
8683;SDS011;4379;59.744;18.206;2023-08-31T03:26:54;2.63;;;2.38;;
8683;SDS011;4379;59.744;18.206;2023-08-31T03:29:21;2.28;;;2.15;;
8683;SDS011;4379;59.744;18.206;2023-08-31T03:31:48;2.60;;;2.40;;
8683;SDS011;4379;59.744;18.206;2023-08-31T03:34:16;2.47;;;2.37;;
8683;SDS011;4379;59.744;18.206;2023-08-31T03:36:44;2.85;;;2.58;;
8683;SDS011;4379;59.744;18.206;2023-08-31T03:39:11;3.42;;;2.70;;
8683;SDS011;4379;59.744;18.206;2023-08-31T03:41:39;2.30;;;2.20;;
8683;SDS011;4379;59.744;18.206;2023-08-31T03:44:06;3.57;;;2.73;;
8683;SDS011;4379;59.744;18.206;2023-08-31T03:46:34;2.50;;;2.33;;
8683;SDS011;4379;59.744;18.206;2023-08-31T03:49:01;2.80;;;2.60;;
8683;SDS011;4379;59.744;18.206;2023-08-31T03:51:29;2.40;;;2.20;;
8683;SDS011;4379;59.744;18.206;2023-08-31T03:53:57;3.65;;;2.85;;
8683;SDS011;4379;59.744;18.206;2023-08-31T03:56:24;2.77;;;2.60;;
8683;SDS011;4379;59.744;18.206;2023-08-31T03:58:51;3.13;;;2.93;;
8683;SDS011;4379;59.744;18.206;2023-08-31T04:01:19;3.10;;;2.90;;
8683;SDS011;4379;59.744;18.206;2023-08-31T04:03:47;2.73;;;2.60;;
8683;SDS011;4379;59.744;18.206;2023-08-31T04:06:14;3.00;;;2.90;;
8683;SDS011;4379;59.744;18.206;2023-08-31T04:08:42;3.22;;;2.80;;
8683;SDS011;4379;59.744;18.206;2023-08-31T04:11:09;3.10;;;2.90;;
8683;SDS011;4379;59.744;18.206;2023-08-31T04:13:37;3.35;;;3.05;;
8683;SDS011;4379;59.744;18.206;2023-08-31T04:16:04;3.47;;;3.27;;
8683;SDS011;4379;59.744;18.206;2023-08-31T04:18:32;3.78;;;3.50;;
8683;SDS011;4379;59.744;18.206;2023-08-31T04:21:00;3.72;;;3.53;;
8683;SDS011;4379;59.744;18.206;2023-08-31T04:23:30;4.07;;;3.88;;
8683;SDS011;4379;59.744;18.206;2023-08-31T04:25:57;3.90;;;3.60;;
8683;SDS011;4379;59.744;18.206;2023-08-31T04:28:26;3.83;;;3.53;;
8683;SDS011;4379;59.744;18.206;2023-08-31T04:30:53;4.20;;;3.80;;
8683;SDS011;4379;59.744;18.206;2023-08-31T04:33:21;3.55;;;3.42;;
8683;SDS011;4379;59.744;18.206;2023-08-31T04:35:48;3.70;;;3.50;;
8683;SDS011;4379;59.744;18.206;2023-08-31T04:38:16;3.70;;;3.50;;
8683;SDS011;4379;59.744;18.206;2023-08-31T04:40:43;3.83;;;3.53;;
8683;SDS011;4379;59.744;18.206;2023-08-31T04:43:11;3.40;;;3.22;;
8683;SDS011;4379;59.744;18.206;2023-08-31T04:45:39;3.63;;;3.42;;
8683;SDS011;4379;59.744;18.206;2023-08-31T04:48:07;3.28;;;3.17;;
8683;SDS011;4379;59.744;18.206;2023-08-31T04:50:36;3.47;;;3.28;;
8683;SDS011;4379;59.744;18.206;2023-08-31T04:53:04;3.28;;;2.85;;
8683;SDS011;4379;59.744;18.206;2023-08-31T04:55:31;3.30;;;3.10;;
8683;SDS011;4379;59.744;18.206;2023-08-31T04:57:59;3.33;;;3.13;;
8683;SDS011;4379;59.744;18.206;2023-08-31T05:00:26;3.03;;;2.90;;
8683;SDS011;4379;59.744;18.206;2023-08-31T05:02:54;2.42;;;2.28;;
8683;SDS011;4379;59.744;18.206;2023-08-31T05:05:22;2.47;;;2.30;;
8683;SDS011;4379;59.744;18.206;2023-08-31T05:07:49;2.35;;;2.25;;
8683;SDS011;4379;59.744;18.206;2023-08-31T05:10:17;2.25;;;2.15;;
8683;SDS011;4379;59.744;18.206;2023-08-31T05:12:45;2.00;;;1.90;;
8683;SDS011;4379;59.744;18.206;2023-08-31T05:15:12;1.90;;;1.80;;
8683;SDS011;4379;59.744;18.206;2023-08-31T05:17:40;2.22;;;2.00;;
8683;SDS011;4379;59.744;18.206;2023-08-31T05:20:10;2.00;;;1.90;;
8683;SDS011;4379;59.744;18.206;2023-08-31T05:22:37;1.95;;;1.85;;
8683;SDS011;4379;59.744;18.206;2023-08-31T05:25:05;2.17;;;2.08;;
8683;SDS011;4379;59.744;18.206;2023-08-31T05:27:33;1.95;;;1.77;;
8683;SDS011;4379;59.744;18.206;2023-08-31T05:30:00;1.83;;;1.73;;
8683;SDS011;4379;59.744;18.206;2023-08-31T05:32:28;2.58;;;1.90;;
8683;SDS011;4379;59.744;18.206;2023-08-31T05:34:56;1.40;;;1.40;;
8683;SDS011;4379;59.744;18.206;2023-08-31T05:37:31;1.92;;;1.83;;
8683;SDS011;4379;59.744;18.206;2023-08-31T05:40:01;1.45;;;1.45;;
8683;SDS011;4379;59.744;18.206;2023-08-31T05:42:34;1.80;;;1.70;;
8683;SDS011;4379;59.744;18.206;2023-08-31T05:45:01;1.45;;;1.30;;
8683;SDS011;4379;59.744;18.206;2023-08-31T05:47:29;1.88;;;1.55;;
8683;SDS011;4379;59.744;18.206;2023-08-31T05:49:56;1.48;;;1.48;;
8683;SDS011;4379;59.744;18.206;2023-08-31T05:52:24;1.70;;;1.60;;
8683;SDS011;4379;59.744;18.206;2023-08-31T05:54:51;1.85;;;1.52;;
8683;SDS011;4379;59.744;18.206;2023-08-31T05:57:21;1.02;;;1.02;;
8683;SDS011;4379;59.744;18.206;2023-08-31T05:59:52;1.40;;;1.30;;
8683;SDS011;4379;59.744;18.206;2023-08-31T06:02:20;1.00;;;1.00;;
8683;SDS011;4379;59.744;18.206;2023-08-31T06:04:47;0.80;;;0.80;;
8683;SDS011;4379;59.744;18.206;2023-08-31T06:07:15;1.25;;;1.15;;
8683;SDS011;4379;59.744;18.206;2023-08-31T06:09:42;1.20;;;1.10;;
8683;SDS011;4379;59.744;18.206;2023-08-31T06:12:10;0.80;;;0.80;;
8683;SDS011;4379;59.744;18.206;2023-08-31T06:14:37;1.58;;;0.90;;
8683;SDS011;4379;59.744;18.206;2023-08-31T06:17:05;1.30;;;1.20;;
8683;SDS011;4379;59.744;18.206;2023-08-31T06:19:32;1.10;;;1.10;;
8683;SDS011;4379;59.744;18.206;2023-08-31T06:21:59;0.90;;;0.90;;
8683;SDS011;4379;59.744;18.206;2023-08-31T06:24:27;1.30;;;1.30;;
8683;SDS011;4379;59.744;18.206;2023-08-31T06:26:54;0.95;;;0.95;;
8683;SDS011;4379;59.744;18.206;2023-08-31T06:29:23;1.10;;;1.00;;
8683;SDS011;4379;59.744;18.206;2023-08-31T06:31:50;1.00;;;1.00;;
8683;SDS011;4379;59.744;18.206;2023-08-31T06:34:18;1.00;;;1.00;;
8683;SDS011;4379;59.744;18.206;2023-08-31T06:36:45;0.93;;;0.93;;
8683;SDS011;4379;59.744;18.206;2023-08-31T06:39:13;1.13;;;1.13;;
8683;SDS011;4379;59.744;18.206;2023-08-31T06:41:40;1.08;;;1.08;;
8683;SDS011;4379;59.744;18.206;2023-08-31T06:44:08;1.50;;;1.00;;
8683;SDS011;4379;59.744;18.206;2023-08-31T06:46:36;1.02;;;1.02;;
8683;SDS011;4379;59.744;18.206;2023-08-31T06:49:04;1.33;;;1.10;;
8683;SDS011;4379;59.744;18.206;2023-08-31T06:51:32;0.95;;;0.95;;
8683;SDS011;4379;59.744;18.206;2023-08-31T06:54:00;1.17;;;1.17;;
8683;SDS011;4379;59.744;18.206;2023-08-31T06:56:33;1.20;;;1.20;;
8683;SDS011;4379;59.744;18.206;2023-08-31T06:59:02;1.35;;;1.30;;
8683;SDS011;4379;59.744;18.206;2023-08-31T07:01:30;1.02;;;1.02;;
8683;SDS011;4379;59.744;18.206;2023-08-31T07:03:59;1.60;;;1.50;;
8683;SDS011;4379;59.744;18.206;2023-08-31T07:06:27;1.40;;;1.30;;
8683;SDS011;4379;59.744;18.206;2023-08-31T07:08:54;1.38;;;1.38;;
8683;SDS011;4379;59.744;18.206;2023-08-31T07:11:22;1.20;;;1.20;;
8683;SDS011;4379;59.744;18.206;2023-08-31T07:13:49;1.30;;;1.30;;
8683;SDS011;4379;59.744;18.206;2023-08-31T07:16:17;1.20;;;1.20;;
8683;SDS011;4379;59.744;18.206;2023-08-31T07:18:44;1.60;;;1.50;;
8683;SDS011;4379;59.744;18.206;2023-08-31T07:21:12;1.50;;;1.40;;
8683;SDS011;4379;59.744;18.206;2023-08-31T07:23:40;1.55;;;1.30;;
8683;SDS011;4379;59.744;18.206;2023-08-31T07:26:07;1.50;;;1.40;;
8683;SDS011;4379;59.744;18.206;2023-08-31T07:28:35;1.30;;;1.30;;
8683;SDS011;4379;59.744;18.206;2023-08-31T07:31:03;1.15;;;1.15;;
8683;SDS011;4379;59.744;18.206;2023-08-31T07:33:33;1.35;;;1.30;;
8683;SDS011;4379;59.744;18.206;2023-08-31T07:36:09;1.20;;;1.20;;
8683;SDS011;4379;59.744;18.206;2023-08-31T07:38:36;1.40;;;1.40;;
8683;SDS011;4379;59.744;18.206;2023-08-31T07:41:04;1.33;;;1.33;;
8683;SDS011;4379;59.744;18.206;2023-08-31T07:43:31;1.48;;;1.48;;
8683;SDS011;4379;59.744;18.206;2023-08-31T07:45:59;1.30;;;1.20;;
8683;SDS011;4379;59.744;18.206;2023-08-31T07:48:27;1.40;;;1.30;;
8683;SDS011;4379;59.744;18.206;2023-08-31T07:50:54;1.45;;;1.33;;
8683;SDS011;4379;59.744;18.206;2023-08-31T07:53:22;1.48;;;1.40;;
8683;SDS011;4379;59.744;18.206;2023-08-31T07:55:50;1.50;;;1.40;;
8683;SDS011;4379;59.744;18.206;2023-08-31T07:58:21;1.52;;;1.42;;
8683;SDS011;4379;59.744;18.206;2023-08-31T08:00:49;1.50;;;1.40;;
8683;SDS011;4379;59.744;18.206;2023-08-31T08:03:19;1.30;;;1.30;;
8683;SDS011;4379;59.744;18.206;2023-08-31T08:05:46;1.33;;;1.33;;
8683;SDS011;4379;59.744;18.206;2023-08-31T08:08:14;1.25;;;1.25;;
8683;SDS011;4379;59.744;18.206;2023-08-31T08:10:42;1.48;;;1.42;;
8683;SDS011;4379;59.744;18.206;2023-08-31T08:13:10;1.30;;;1.30;;
8683;SDS011;4379;59.744;18.206;2023-08-31T08:15:38;1.10;;;1.10;;
8683;SDS011;4379;59.744;18.206;2023-08-31T08:18:05;1.50;;;1.40;;
8683;SDS011;4379;59.744;18.206;2023-08-31T08:20:33;1.30;;;1.23;;
8683;SDS011;4379;59.744;18.206;2023-08-31T08:23:00;1.05;;;1.05;;
8683;SDS011;4379;59.744;18.206;2023-08-31T08:25:28;1.33;;;1.33;;
8683;SDS011;4379;59.744;18.206;2023-08-31T08:27:55;1.60;;;1.50;;
8683;SDS011;4379;59.744;18.206;2023-08-31T08:30:22;1.30;;;1.30;;
8683;SDS011;4379;59.744;18.206;2023-08-31T08:32:50;1.50;;;1.40;;
8683;SDS011;4379;59.744;18.206;2023-08-31T08:35:18;1.27;;;1.27;;
8683;SDS011;4379;59.744;18.206;2023-08-31T08:37:45;1.35;;;1.35;;
8683;SDS011;4379;59.744;18.206;2023-08-31T08:40:13;1.35;;;1.33;;
8683;SDS011;4379;59.744;18.206;2023-08-31T08:42:41;1.35;;;1.35;;
8683;SDS011;4379;59.744;18.206;2023-08-31T08:45:14;1.25;;;1.25;;
8683;SDS011;4379;59.744;18.206;2023-08-31T08:47:43;1.33;;;1.33;;
8683;SDS011;4379;59.744;18.206;2023-08-31T08:50:11;1.55;;;1.48;;
8683;SDS011;4379;59.744;18.206;2023-08-31T08:52:39;1.25;;;1.25;;
8683;SDS011;4379;59.744;18.206;2023-08-31T08:55:08;1.20;;;1.20;;
8683;SDS011;4379;59.744;18.206;2023-08-31T08:57:36;1.35;;;1.35;;
8683;SDS011;4379;59.744;18.206;2023-08-31T09:00:06;1.30;;;1.30;;
8683;SDS011;4379;59.744;18.206;2023-08-31T09:02:34;1.02;;;1.02;;
8683;SDS011;4379;59.744;18.206;2023-08-31T09:05:02;1.20;;;1.20;;
8683;SDS011;4379;59.744;18.206;2023-08-31T09:07:33;1.50;;;1.42;;
8683;SDS011;4379;59.744;18.206;2023-08-31T09:10:03;1.35;;;1.35;;
8683;SDS011;4379;59.744;18.206;2023-08-31T09:12:32;1.75;;;1.65;;
8683;SDS011;4379;59.744;18.206;2023-08-31T09:15:04;1.50;;;1.40;;
8683;SDS011;4379;59.744;18.206;2023-08-31T09:17:37;1.42;;;1.33;;
8683;SDS011;4379;59.744;18.206;2023-08-31T09:20:06;1.52;;;1.42;;
8683;SDS011;4379;59.744;18.206;2023-08-31T09:22:35;1.30;;;1.30;;
8683;SDS011;4379;59.744;18.206;2023-08-31T09:25:06;1.50;;;1.40;;
8683;SDS011;4379;59.744;18.206;2023-08-31T09:27:39;1.40;;;1.40;;
8683;SDS011;4379;59.744;18.206;2023-08-31T09:30:07;1.30;;;1.30;;
8683;SDS011;4379;59.744;18.206;2023-08-31T09:32:35;1.92;;;1.27;;
8683;SDS011;4379;59.744;18.206;2023-08-31T09:35:03;1.50;;;1.40;;
8683;SDS011;4379;59.744;18.206;2023-08-31T09:37:54;1.88;;;1.38;;
8683;SDS011;4379;59.744;18.206;2023-08-31T09:40:24;1.40;;;1.40;;
8683;SDS011;4379;59.744;18.206;2023-08-31T09:42:51;1.90;;;1.80;;
8683;SDS011;4379;59.744;18.206;2023-08-31T09:45:25;1.33;;;1.33;;
8683;SDS011;4379;59.744;18.206;2023-08-31T09:48:12;1.58;;;1.58;;
8683;SDS011;4379;59.744;18.206;2023-08-31T09:50:45;1.60;;;1.50;;
8683;SDS011;4379;59.744;18.206;2023-08-31T09:53:13;1.23;;;1.23;;
8683;SDS011;4379;59.744;18.206;2023-08-31T09:55:43;1.38;;;1.38;;
8683;SDS011;4379;59.744;18.206;2023-08-31T09:58:13;1.70;;;1.60;;
8683;SDS011;4379;59.744;18.206;2023-08-31T10:00:44;1.50;;;1.40;;
8683;SDS011;4379;59.744;18.206;2023-08-31T10:03:13;1.35;;;1.25;;
8683;SDS011;4379;59.744;18.206;2023-08-31T10:05:49;3.97;;;1.27;;
8683;SDS011;4379;59.744;18.206;2023-08-31T10:08:17;1.38;;;1.38;;
8683;SDS011;4379;59.744;18.206;2023-08-31T10:10:45;1.33;;;1.33;;
8683;SDS011;4379;59.744;18.206;2023-08-31T10:13:13;1.23;;;1.20;;
8683;SDS011;4379;59.744;18.206;2023-08-31T10:15:43;1.20;;;1.20;;
8683;SDS011;4379;59.744;18.206;2023-08-31T10:18:11;1.20;;;1.20;;
8683;SDS011;4379;59.744;18.206;2023-08-31T10:20:41;1.40;;;1.33;;
8683;SDS011;4379;59.744;18.206;2023-08-31T10:23:09;1.20;;;1.10;;
8683;SDS011;4379;59.744;18.206;2023-08-31T10:25:59;1.17;;;1.17;;
8683;SDS011;4379;59.744;18.206;2023-08-31T10:28:27;1.20;;;1.20;;
8683;SDS011;4379;59.744;18.206;2023-08-31T10:31:05;0.98;;;0.98;;
8683;SDS011;4379;59.744;18.206;2023-08-31T10:33:41;3.05;;;1.30;;
8683;SDS011;4379;59.744;18.206;2023-08-31T10:36:17;1.20;;;1.20;;
8683;SDS011;4379;59.744;18.206;2023-08-31T10:39:30;1.20;;;1.15;;
8683;SDS011;4379;59.744;18.206;2023-08-31T10:41:37;1.17;;;1.17;;
8683;SDS011;4379;59.744;18.206;2023-08-31T10:44:27;1.08;;;1.08;;
8683;SDS011;4379;59.744;18.206;2023-08-31T10:46:55;1.50;;;1.40;;
8683;SDS011;4379;59.744;18.206;2023-08-31T10:49:25;1.10;;;1.10;;
8683;SDS011;4379;59.744;18.206;2023-08-31T10:54:25;1.20;;;1.20;;
8683;SDS011;4379;59.744;18.206;2023-08-31T10:59:25;2.75;;;1.20;;
8683;SDS011;4379;59.744;18.206;2023-08-31T11:01:59;1.30;;;1.20;;
8683;SDS011;4379;59.744;18.206;2023-08-31T11:04:29;1.10;;;1.10;;
8683;SDS011;4379;59.744;18.206;2023-08-31T11:07:13;1.15;;;1.05;;
8683;SDS011;4379;59.744;18.206;2023-08-31T11:09:43;1.35;;;1.23;;
8683;SDS011;4379;59.744;18.206;2023-08-31T11:12:12;1.17;;;1.17;;
8683;SDS011;4379;59.744;18.206;2023-08-31T11:14:40;1.08;;;1.08;;
8683;SDS011;4379;59.744;18.206;2023-08-31T11:17:08;1.00;;;1.00;;
8683;SDS011;4379;59.744;18.206;2023-08-31T11:19:37;0.98;;;0.98;;
8683;SDS011;4379;59.744;18.206;2023-08-31T11:22:05;1.00;;;1.00;;
8683;SDS011;4379;59.744;18.206;2023-08-31T11:24:33;1.88;;;0.98;;
8683;SDS011;4379;59.744;18.206;2023-08-31T11:27:01;1.20;;;1.20;;
8683;SDS011;4379;59.744;18.206;2023-08-31T11:29:30;1.00;;;1.00;;
8683;SDS011;4379;59.744;18.206;2023-08-31T11:31:57;1.10;;;1.10;;
8683;SDS011;4379;59.744;18.206;2023-08-31T11:34:29;1.02;;;1.02;;
8683;SDS011;4379;59.744;18.206;2023-08-31T11:36:56;1.00;;;1.00;;
8683;SDS011;4379;59.744;18.206;2023-08-31T11:39:24;1.00;;;1.00;;
8683;SDS011;4379;59.744;18.206;2023-08-31T11:41:51;1.10;;;1.10;;
8683;SDS011;4379;59.744;18.206;2023-08-31T11:44:19;0.90;;;0.90;;
8683;SDS011;4379;59.744;18.206;2023-08-31T11:46:46;1.17;;;0.90;;
8683;SDS011;4379;59.744;18.206;2023-08-31T11:49:19;1.00;;;1.00;;
8683;SDS011;4379;59.744;18.206;2023-08-31T11:51:48;1.00;;;1.00;;
8683;SDS011;4379;59.744;18.206;2023-08-31T11:54:19;1.00;;;1.00;;
8683;SDS011;4379;59.744;18.206;2023-08-31T11:56:46;0.98;;;0.98;;
8683;SDS011;4379;59.744;18.206;2023-08-31T11:59:15;0.98;;;0.98;;
8683;SDS011;4379;59.744;18.206;2023-08-31T12:01:45;1.13;;;1.13;;
8683;SDS011;4379;59.744;18.206;2023-08-31T12:06:46;0.90;;;0.90;;
8683;SDS011;4379;59.744;18.206;2023-08-31T12:09:17;1.17;;;1.00;;
8683;SDS011;4379;59.744;18.206;2023-08-31T12:11:49;1.52;;;1.00;;
8683;SDS011;4379;59.744;18.206;2023-08-31T12:14:22;1.13;;;1.02;;
8683;SDS011;4379;59.744;18.206;2023-08-31T12:16:59;1.00;;;1.00;;
8683;SDS011;4379;59.744;18.206;2023-08-31T12:19:30;1.38;;;1.08;;
8683;SDS011;4379;59.744;18.206;2023-08-31T12:21:58;1.10;;;1.10;;
8683;SDS011;4379;59.744;18.206;2023-08-31T12:24:26;0.98;;;0.98;;
8683;SDS011;4379;59.744;18.206;2023-08-31T12:26:54;1.42;;;0.80;;
8683;SDS011;4379;59.744;18.206;2023-08-31T12:29:21;1.77;;;1.00;;
8683;SDS011;4379;59.744;18.206;2023-08-31T12:31:49;1.10;;;1.10;;
8683;SDS011;4379;59.744;18.206;2023-08-31T12:34:17;1.13;;;1.00;;
8683;SDS011;4379;59.744;18.206;2023-08-31T12:36:45;1.58;;;1.05;;
8683;SDS011;4379;59.744;18.206;2023-08-31T12:39:12;1.45;;;1.02;;
8683;SDS011;4379;59.744;18.206;2023-08-31T12:41:40;1.20;;;1.10;;
8683;SDS011;4379;59.744;18.206;2023-08-31T12:44:08;0.85;;;0.85;;
8683;SDS011;4379;59.744;18.206;2023-08-31T12:46:35;0.88;;;0.88;;
8683;SDS011;4379;59.744;18.206;2023-08-31T12:49:03;1.98;;;0.95;;
8683;SDS011;4379;59.744;18.206;2023-08-31T12:51:31;0.90;;;0.90;;
8683;SDS011;4379;59.744;18.206;2023-08-31T12:53:59;1.10;;;1.10;;
8683;SDS011;4379;59.744;18.206;2023-08-31T12:56:26;0.80;;;0.80;;
8683;SDS011;4379;59.744;18.206;2023-08-31T12:58:54;1.17;;;1.08;;
8683;SDS011;4379;59.744;18.206;2023-08-31T13:01:21;0.98;;;0.98;;
8683;SDS011;4379;59.744;18.206;2023-08-31T13:03:53;2.35;;;1.10;;
8683;SDS011;4379;59.744;18.206;2023-08-31T13:06:20;1.10;;;1.10;;
8683;SDS011;4379;59.744;18.206;2023-08-31T13:08:48;1.05;;;0.93;;
8683;SDS011;4379;59.744;18.206;2023-08-31T13:11:17;1.02;;;1.02;;
8683;SDS011;4379;59.744;18.206;2023-08-31T13:13:50;1.00;;;1.00;;
8683;SDS011;4379;59.744;18.206;2023-08-31T13:16:20;1.20;;;1.10;;
8683;SDS011;4379;59.744;18.206;2023-08-31T13:18:51;1.00;;;1.00;;
8683;SDS011;4379;59.744;18.206;2023-08-31T13:21:18;1.23;;;1.13;;
8683;SDS011;4379;59.744;18.206;2023-08-31T13:23:47;2.65;;;1.20;;
8683;SDS011;4379;59.744;18.206;2023-08-31T13:26:15;1.00;;;1.00;;
8683;SDS011;4379;59.744;18.206;2023-08-31T13:28:45;1.35;;;1.35;;
8683;SDS011;4379;59.744;18.206;2023-08-31T13:31:12;0.73;;;0.73;;
8683;SDS011;4379;59.744;18.206;2023-08-31T13:33:40;0.80;;;0.80;;
8683;SDS011;4379;59.744;18.206;2023-08-31T13:36:09;0.80;;;0.80;;
8683;SDS011;4379;59.744;18.206;2023-08-31T13:38:38;0.80;;;0.80;;
8683;SDS011;4379;59.744;18.206;2023-08-31T13:41:06;1.67;;;0.80;;
8683;SDS011;4379;59.744;18.206;2023-08-31T13:43:35;1.00;;;0.80;;
8683;SDS011;4379;59.744;18.206;2023-08-31T13:46:02;0.70;;;0.70;;
8683;SDS011;4379;59.744;18.206;2023-08-31T13:48:31;10.10;;;0.80;;
8683;SDS011;4379;59.744;18.206;2023-08-31T13:50:59;0.60;;;0.60;;
8683;SDS011;4379;59.744;18.206;2023-08-31T13:53:26;0.57;;;0.57;;
8683;SDS011;4379;59.744;18.206;2023-08-31T13:55:55;0.50;;;0.50;;
8683;SDS011;4379;59.744;18.206;2023-08-31T13:58:23;0.40;;;0.40;;
8683;SDS011;4379;59.744;18.206;2023-08-31T14:00:51;0.77;;;0.40;;
8683;SDS011;4379;59.744;18.206;2023-08-31T14:03:18;1.75;;;0.40;;
8683;SDS011;4379;59.744;18.206;2023-08-31T14:05:49;0.98;;;0.40;;
8683;SDS011;4379;59.744;18.206;2023-08-31T14:08:17;0.40;;;0.40;;
8683;SDS011;4379;59.744;18.206;2023-08-31T14:10:44;0.60;;;0.50;;
8683;SDS011;4379;59.744;18.206;2023-08-31T14:13:12;0.40;;;0.40;;
8683;SDS011;4379;59.744;18.206;2023-08-31T14:15:44;0.50;;;0.50;;
8683;SDS011;4379;59.744;18.206;2023-08-31T14:18:13;0.40;;;0.40;;
8683;SDS011;4379;59.744;18.206;2023-08-31T14:20:42;0.40;;;0.40;;
8683;SDS011;4379;59.744;18.206;2023-08-31T14:23:09;1.27;;;0.50;;
8683;SDS011;4379;59.744;18.206;2023-08-31T14:25:36;0.50;;;0.50;;
8683;SDS011;4379;59.744;18.206;2023-08-31T14:28:07;0.50;;;0.50;;
8683;SDS011;4379;59.744;18.206;2023-08-31T14:30:36;0.50;;;0.50;;
8683;SDS011;4379;59.744;18.206;2023-08-31T14:33:04;0.50;;;0.50;;
8683;SDS011;4379;59.744;18.206;2023-08-31T14:35:35;0.30;;;0.30;;
8683;SDS011;4379;59.744;18.206;2023-08-31T14:38:06;0.57;;;0.40;;
8683;SDS011;4379;59.744;18.206;2023-08-31T14:40:34;0.50;;;0.50;;
8683;SDS011;4379;59.744;18.206;2023-08-31T14:43:07;0.40;;;0.40;;
8683;SDS011;4379;59.744;18.206;2023-08-31T14:45:34;0.45;;;0.45;;
8683;SDS011;4379;59.744;18.206;2023-08-31T14:48:05;0.40;;;0.40;;
8683;SDS011;4379;59.744;18.206;2023-08-31T14:50:32;1.70;;;0.55;;
8683;SDS011;4379;59.744;18.206;2023-08-31T14:53:00;0.50;;;0.50;;
8683;SDS011;4379;59.744;18.206;2023-08-31T14:55:27;0.40;;;0.40;;
8683;SDS011;4379;59.744;18.206;2023-08-31T14:57:55;0.52;;;0.50;;
8683;SDS011;4379;59.744;18.206;2023-08-31T15:00:22;0.75;;;0.47;;
8683;SDS011;4379;59.744;18.206;2023-08-31T15:02:52;0.50;;;0.50;;
8683;SDS011;4379;59.744;18.206;2023-08-31T15:05:21;0.52;;;0.52;;
8683;SDS011;4379;59.744;18.206;2023-08-31T15:07:52;0.57;;;0.57;;
8683;SDS011;4379;59.744;18.206;2023-08-31T15:10:19;0.50;;;0.50;;
8683;SDS011;4379;59.744;18.206;2023-08-31T15:12:47;0.50;;;0.50;;
8683;SDS011;4379;59.744;18.206;2023-08-31T15:15:14;0.50;;;0.50;;
8683;SDS011;4379;59.744;18.206;2023-08-31T15:17:43;0.50;;;0.50;;
8683;SDS011;4379;59.744;18.206;2023-08-31T15:20:10;0.52;;;0.52;;
8683;SDS011;4379;59.744;18.206;2023-08-31T15:22:38;0.60;;;0.60;;
8683;SDS011;4379;59.744;18.206;2023-08-31T15:25:06;0.43;;;0.43;;